Terminal Aerodrome Forecast
Issued by NWS Duluth, MN

Home | Current Version | Previous Version | Text Only | Print | Product List | Glossary On
Versions: 1 2 3 4 5 6 7 8 9 10 11 12 13 14 15 16 17 18 19 20 21 22 23 24 25 26 27 28 29 30 31
000
FTUS43 KDLH 240557 AAA
TAFDLH
TAF AMD
KDLH 240557Z 2406/2506 14003KT 1/2SM FG OVC002
      TEMPO 2406/2408 1/4SM FG VV002
     FM240800 00000KT 1/4SM FG VV002
     FM241200 16004KT P6SM FEW004
      TEMPO 2412/2414 1 1/2SM BR BKN004
     FM241400 16004KT P6SM SCT005
     FM241600 19008KT P6SM FEW050
     FM250000 13006KT P6SM SCT250=

USA.gov is the U.S. government's official web portal to all federal, state and local government web resources and services.